Accueil
METAR-TAF:

METAR-TAF

Aéroports :

Aéroport de Canefield

Roseau, Dominique

latitude: 15-32N, longitude: 061-24W, altitude: 5 m

Observation

Le bulletin a été fait il y a 12 heures et 44 minutes, à 20:00 UTC
Vent 4 kt de nord/nord-ouest
Température 32°C
Humidité 46%
Pression 1013 hPa
Visibilité 10 km ou plus
Quelques nuages à une hauteur de 2400 ft

METAR: TDCF 282000Z 34004KT 9999 FEW024 32/19 Q1013

Heure: 04:44 (08:44 UTC)


TAF: absent

Observations et prévisions météorologiques de plus de 4000 aéroports (messages METAR et TAF).

Les stations disponibles sont représentées par des disques jaunes et rouges sur la carte.

Passer la souris dessus pour voir le nom de la station.

Cliquer dessus pour voir les observations et prévisions météorologiques.

Pour changer de carte: cliquez sur les boutons verts avec une croix noire pour zoomer, sur le bouton vert avec un tiret pour effectuer un zoom arrière, ou sur les flèches vertes pour les cartes adjacentes.


METAR-TAF: